createdAt,value
2022-08-21T05:30:27.073Z,67.75
2022-08-21T05:31:59.284Z,67.28
2022-08-21T05:33:32.334Z,67.92
2022-08-21T05:35:08.835Z,67.55
2022-08-21T05:36:40.906Z,68.27
2022-08-21T05:38:18.321Z,68.04
2022-08-21T05:40:21.720Z,67.51
2022-08-21T05:41:47.442Z,67.38
2022-08-21T05:43:19.603Z,66.87
2022-08-21T05:44:52.896Z,66.25
2022-08-21T05:46:27.449Z,66.98
2022-08-21T05:47:59.923Z,66.49
2022-08-21T05:49:32.302Z,66.52
2022-08-21T05:51:08.881Z,66.84
2022-08-21T05:52:41.893Z,67.33
2022-08-21T05:54:14.928Z,67.65
2022-08-21T05:55:47.407Z,67.20
2022-08-21T05:57:19.504Z,67.70
2022-08-21T05:58:51.600Z,67.99
2022-08-21T06:00:24.499Z,68.11
2022-08-21T06:01:56.796Z,68.91
2022-08-21T06:03:33.010Z,69.12
2022-08-21T06:05:05.330Z,69.25
2022-08-21T06:06:37.629Z,69.64
2022-08-21T06:08:09.827Z,68.79
2022-08-21T06:09:42.337Z,67.36
2022-08-21T06:11:14.459Z,68.07
2022-08-21T06:12:46.592Z,68.18
2022-08-21T06:14:19.735Z,67.78
2022-08-21T06:16:01.755Z,68.43
2022-08-21T06:17:34.917Z,68.08
2022-08-21T06:19:06.999Z,67.23
2022-08-21T06:20:39.804Z,67.26
2022-08-21T06:22:12.086Z,67.57
2022-08-21T06:23:44.822Z,67.81
2022-08-21T06:25:16.989Z,68.15
2022-08-21T06:26:50.014Z,66.70
2022-08-21T06:28:23.089Z,66.75
2022-08-21T15:52:09.101Z,70.54
2022-08-21T16:03:50.765Z,69.77
2022-08-21T16:05:23.538Z,71.99
2022-08-21T16:07:01.758Z,71.47
2022-08-21T16:08:38.489Z,70.61
2022-08-21T16:10:11.925Z,72.56
2022-08-21T16:11:44.988Z,71.87
2022-08-21T16:13:31.835Z,72.02
2022-08-21T16:15:05.491Z,71.83
2022-08-21T16:16:38.601Z,70.18
2022-08-21T16:18:11.890Z,69.92
2022-08-21T16:19:43.975Z,69.73
2022-08-21T16:21:16.496Z,70.15
2022-08-21T16:22:49.733Z,68.95
2022-08-21T16:24:21.722Z,69.09
2022-08-21T16:25:53.881Z,69.81
2022-08-21T16:27:27.280Z,70.07
2022-08-21T16:29:01.237Z,69.73
2022-08-21T16:30:33.420Z,69.33
2022-08-21T16:32:06.859Z,68.89
2022-08-21T16:33:45.234Z,69.19
2022-08-21T16:35:18.914Z,69.85
2022-08-21T16:36:51.098Z,69.44
2022-08-21T16:38:24.454Z,69.63
2022-08-21T16:39:57.644Z,69.23
2022-08-21T16:41:33.733Z,69.96
2022-08-21T16:43:05.860Z,70.81
2022-08-21T16:44:38.014Z,70.89
2022-08-21T16:46:11.330Z,70.70
2022-08-21T16:47:44.998Z,70.40
2022-08-21T16:49:18.151Z,70.24
2022-08-21T16:50:51.323Z,70.28
2022-08-21T16:52:23.464Z,70.06
2022-08-21T16:53:56.653Z,70.67
2022-08-21T16:55:29.755Z,70.75
2022-08-21T16:57:01.944Z,70.45
2022-08-21T16:58:35.258Z,70.00
2022-08-21T17:00:16.822Z,69.65
2022-08-21T17:01:49.965Z,69.93
2022-08-21T17:03:27.694Z,70.25
2022-08-21T17:05:02.885Z,70.39
2022-08-21T17:06:34.921Z,70.50
2022-08-21T17:08:09.420Z,69.93
2022-08-21T17:09:42.717Z,70.31
2022-08-21T17:11:36.835Z,70.09
2022-08-21T17:13:11.286Z,69.58
2022-08-21T17:14:43.402Z,69.53
2022-08-21T17:16:16.777Z,68.76
2022-08-21T17:17:50.511Z,69.14
2022-08-21T17:19:23.898Z,69.44
2022-08-21T17:20:55.979Z,68.65
2022-08-21T17:22:28.080Z,69.10
2022-08-21T17:24:00.278Z,69.45
2022-08-21T17:25:33.794Z,70.07
2022-08-21T17:27:07.560Z,71.24
2022-08-21T17:28:40.847Z,71.27
2022-08-21T17:30:13.580Z,70.87
2022-08-21T17:31:47.115Z,70.59
2022-08-21T17:33:19.983Z,71.54
2022-08-21T17:34:52.494Z,71.64
2022-08-21T17:36:30.104Z,71.19
2022-08-21T17:38:02.095Z,70.67
2022-08-21T17:39:37.581Z,70.52
2022-08-21T17:41:10.916Z,70.93
2022-08-21T17:42:44.273Z,70.81
2022-08-21T17:44:18.832Z,71.13
2022-08-21T17:45:51.048Z,70.90
2022-08-21T17:47:23.494Z,71.22
2022-08-21T17:48:56.873Z,70.71
2022-08-21T17:50:29.898Z,70.91
2022-08-21T17:52:02.081Z,70.92
2022-08-21T17:53:35.298Z,71.17
2022-08-21T17:55:08.500Z,71.26
2022-08-21T17:56:41.596Z,71.09
2022-08-21T17:58:14.415Z,71.61
2022-08-21T17:59:47.790Z,71.76
2022-08-21T18:01:20.991Z,72.10
2022-08-21T18:03:00.128Z,71.88
2022-08-21T18:04:32.600Z,71.80
2022-08-21T18:06:04.816Z,71.75
2022-08-21T18:07:38.146Z,71.50
2022-08-21T18:09:13.486Z,71.43
2022-08-21T18:10:47.065Z,71.99
2022-08-21T18:12:19.286Z,71.95
2022-08-21T18:13:52.341Z,71.49
2022-08-21T18:15:24.460Z,72.02
2022-08-21T18:16:57.849Z,71.09
2022-08-21T18:18:33.378Z,70.51
2022-08-21T18:20:06.737Z,70.95
2022-08-21T18:21:39.785Z,70.58
2022-08-21T18:23:12.890Z,69.76
2022-08-21T18:24:45.042Z,70.03
2022-08-21T18:26:26.665Z,69.74
2022-08-21T18:28:00.974Z,69.90
2022-08-21T18:29:35.766Z,69.87
2022-08-21T18:31:19.748Z,69.73
2022-08-21T18:32:54.457Z,69.96
2022-08-21T18:34:28.550Z,69.93
2022-08-21T18:36:01.574Z,69.70
2022-08-21T18:37:38.053Z,70.24
2022-08-21T18:39:34.932Z,70.08
2022-08-21T18:41:03.066Z,70.57
2022-08-21T18:42:55.493Z,70.38
2022-08-21T18:44:28.248Z,71.00
2022-08-21T18:46:01.408Z,70.70
2022-08-21T18:47:41.500Z,70.69
2022-08-21T18:49:13.729Z,70.40
2022-08-21T18:52:51.877Z,70.76
2022-08-21T18:54:26.980Z,70.72
2022-08-21T18:56:05.261Z,70.73
2022-08-21T18:57:38.773Z,71.33
2022-08-21T18:59:12.691Z,70.83
2022-08-21T19:00:48.651Z,71.08
2022-08-21T19:02:22.859Z,70.67
2022-08-21T19:03:56.149Z,70.66
2022-08-21T19:05:28.228Z,70.44
2022-08-21T19:07:00.337Z,70.96
2022-08-21T19:08:32.482Z,70.81
2022-08-21T19:10:27.831Z,70.59
2022-08-21T19:11:58.566Z,70.75
2022-08-21T19:13:31.394Z,71.16
2022-08-21T19:15:04.954Z,71.20
2022-08-21T19:16:38.554Z,70.59
2022-08-21T19:18:12.128Z,70.96
2022-08-21T19:19:44.393Z,70.66
2022-08-21T19:21:16.896Z,70.53
2022-08-21T19:22:53.470Z,70.74
2022-08-21T19:24:26.430Z,70.74
2022-08-21T19:26:02.862Z,70.93
2022-08-21T19:27:36.305Z,70.98
2022-08-21T19:29:09.735Z,70.88
2022-08-21T19:30:47.974Z,71.08
2022-08-21T19:32:20.205Z,71.30
2022-08-21T19:33:59.020Z,70.60
2022-08-21T19:35:46.962Z,70.64
2022-08-21T19:37:24.582Z,70.94
2022-08-21T19:38:57.902Z,71.24
2022-08-21T19:40:31.078Z,72.48
2022-08-21T19:42:04.502Z,72.93
2022-08-21T19:43:40.918Z,72.42
2022-08-21T19:45:13.359Z,71.92
2022-08-21T19:46:46.141Z,71.41
2022-08-21T19:48:22.908Z,72.12
2022-08-21T19:49:58.298Z,72.20
2022-08-21T19:51:30.780Z,72.24
2022-08-21T19:53:03.369Z,72.68
2022-08-21T19:54:35.713Z,71.90
2022-08-21T19:56:12.782Z,72.40
2022-08-21T19:57:45.939Z,72.31
2022-08-21T20:01:16.769Z,71.71
2022-08-21T20:02:50.272Z,71.35
2022-08-21T20:04:22.909Z,70.57
2022-08-21T20:05:55.052Z,70.67
2022-08-21T20:07:28.184Z,70.95
2022-08-21T20:09:08.374Z,71.00
2022-08-21T20:10:44.319Z,70.96
2022-08-21T20:12:16.663Z,70.98
2022-08-21T20:13:49.539Z,71.26
2022-08-21T20:15:22.834Z,70.33
2022-08-21T20:16:58.204Z,70.47
2022-08-21T20:18:33.561Z,72.08
2022-08-21T20:20:06.103Z,71.58
2022-08-21T20:21:44.003Z,71.24
2022-08-21T20:23:19.705Z,71.15
2022-08-21T20:25:02.613Z,71.06
2022-08-21T20:26:36.169Z,71.05
2022-08-21T20:28:09.715Z,71.03
2022-08-21T20:29:42.821Z,70.85
2022-08-21T20:31:17.255Z,71.35
2022-08-21T20:32:51.738Z,70.73
2022-08-21T20:34:25.539Z,70.75
2022-08-21T20:35:57.620Z,71.27
2022-08-21T20:37:36.345Z,70.29
2022-08-21T20:39:11.321Z,69.88
2022-08-21T20:40:44.242Z,69.62
2022-08-21T20:42:16.961Z,69.26
2022-08-21T20:43:50.504Z,69.97
2022-08-21T20:45:24.213Z,69.20
2022-08-21T20:46:58.168Z,69.22
2022-08-21T20:48:49.361Z,69.22
2022-08-21T20:50:33.564Z,70.66
2022-08-21T20:52:09.507Z,71.41
2022-08-21T20:53:49.266Z,70.85
2022-08-21T20:55:29.169Z,70.74
2022-08-21T20:57:13.632Z,70.29
2022-08-21T20:59:02.331Z,69.77
2022-08-21T21:00:36.030Z,70.79
2022-08-21T21:02:17.217Z,71.34
2022-08-21T21:03:55.001Z,71.18
2022-08-21T21:05:29.857Z,71.09
2022-08-21T21:07:06.549Z,71.32
2022-08-21T21:08:46.736Z,71.34
2022-08-21T21:10:27.310Z,71.28
2022-08-21T21:12:04.452Z,71.40
2022-08-21T21:13:44.285Z,71.09
2022-08-21T21:15:27.817Z,69.91
2022-08-21T21:17:02.046Z,69.62
2022-08-21T21:18:40.822Z,69.55
2022-08-21T21:20:39.732Z,69.88
2022-08-21T21:22:33.066Z,69.82
2022-08-21T21:24:08.643Z,69.56
2022-08-21T21:27:49.251Z,69.92
2022-08-21T21:29:25.743Z,69.93
2022-08-21T21:31:03.865Z,70.05
2022-08-21T21:32:37.182Z,69.10
2022-08-21T21:34:17.207Z,68.76
2022-08-21T21:35:54.631Z,69.31
2022-08-21T21:37:32.744Z,69.36
2022-08-21T21:39:11.540Z,68.76
2022-08-21T21:41:03.210Z,68.91
2022-08-21T21:44:48.927Z,68.31
2022-08-21T21:46:41.836Z,68.16
2022-08-21T21:48:21.340Z,68.77
2022-08-21T21:50:02.765Z,68.65
2022-08-21T21:51:39.007Z,68.51
2022-08-21T21:53:20.148Z,68.50
2022-08-21T21:55:05.860Z,68.35
2022-08-21T21:56:52.709Z,69.27
2022-08-21T21:58:43.631Z,69.97
2022-08-21T22:00:20.794Z,70.25
2022-08-21T22:02:15.560Z,70.18
2022-08-21T22:04:09.665Z,70.35
2022-08-21T22:05:42.772Z,70.63
2022-08-21T22:07:21.421Z,69.95
2022-08-21T22:08:54.558Z,69.70
2022-08-21T22:10:43.112Z,70.68
2022-08-21T22:12:28.331Z,70.88
2022-08-21T22:14:08.502Z,70.77
2022-08-21T22:15:41.569Z,70.69
2022-08-21T22:17:26.015Z,71.02
2022-08-21T22:19:23.684Z,70.56
2022-08-21T22:21:03.902Z,71.65
2022-08-21T22:22:36.667Z,71.46
2022-08-21T22:24:27.840Z,71.42
2022-08-21T22:26:04.783Z,71.45
2022-08-21T22:27:39.090Z,71.54
2022-08-21T22:29:15.393Z,71.28
2022-08-21T22:30:50.373Z,70.92
2022-08-21T22:32:28.731Z,71.13
2022-08-21T22:34:06.630Z,71.57
2022-08-21T22:35:51.902Z,71.40
2022-08-21T22:37:33.549Z,71.11
2022-08-21T22:39:14.564Z,70.61
2022-08-21T22:40:47.601Z,69.92
2022-08-21T22:42:24.963Z,69.84
2022-08-21T22:47:52.218Z,69.05
2022-08-21T22:49:34.312Z,68.76
2022-08-21T22:51:12.870Z,68.42
2022-08-21T22:52:46.561Z,67.80
2022-08-21T22:54:34.436Z,67.88
2022-08-21T22:56:08.014Z,67.86
2022-08-21T22:57:41.640Z,67.80
2022-08-21T22:59:27.486Z,68.09
2022-08-21T23:01:20.167Z,67.97
2022-08-21T23:02:53.425Z,67.99
2022-08-21T23:04:28.155Z,68.92
2022-08-21T23:06:03.112Z,68.65
2022-08-21T23:09:45.375Z,68.60
2022-08-21T23:11:23.438Z,68.88
2022-08-21T23:13:03.061Z,69.35
2022-08-21T23:14:41.760Z,68.85
2022-08-21T23:16:24.352Z,68.31
2022-08-21T23:17:59.173Z,68.24
2022-08-21T23:19:52.523Z,68.81
2022-08-21T23:21:40.836Z,69.17
2022-08-21T23:23:26.843Z,69.93
2022-08-21T23:25:12.416Z,69.62
2022-08-21T23:26:54.625Z,69.14
2022-08-21T23:28:55.210Z,68.97
2022-08-21T23:30:39.499Z,69.11
2022-08-21T23:32:35.490Z,69.38
2022-08-21T23:34:38.470Z,69.78
2022-08-21T23:36:41.437Z,69.56
2022-08-21T23:38:36.821Z,69.06
2022-08-21T23:40:15.127Z,69.52
2022-08-21T23:41:59.671Z,69.35
2022-08-21T23:44:00.956Z,69.43
2022-08-21T23:45:36.081Z,70.38
2022-08-21T23:47:20.049Z,71.38
2022-08-21T23:48:52.090Z,71.86
2022-08-21T23:50:33.089Z,71.67
2022-08-21T23:52:36.027Z,71.06
2022-08-21T23:54:34.239Z,70.49
2022-08-21T23:56:07.307Z,70.26
2022-08-21T23:57:57.990Z,71.41
2022-08-21T23:59:29.977Z,69.86
